Time;durP1;ratioP1;P1;durP2;ratioP2;P2;SDS_P1;SDS_P2;PMS_P1;PMS_P2;Temp;Humidity;BMP_temperature;BMP_pressure;BME280_temperature;BME280_humidity;BME280_pressure;Samples;Min_cycle;Max_cycle;Signal;HPM_P1;HPM_P2
2022/07/30 00:00:46;;;;;;;3.13;1.50;;;;;;;16.06;88.59;101748.34;5077107;28;20119;-68
2022/07/30 00:03:12;;;;;;;2.22;1.35;;;;;;;16.04;88.95;101761.81;5072577;28;20028;-68
2022/07/30 00:05:37;;;;;;;2.65;2.00;;;;;;;16.03;89.17;101754.84;5071208;28;20444;-68
2022/07/30 00:08:03;;;;;;;4.00;1.75;;;;;;;16.02;89.16;101754.00;5075229;28;20392;-68
2022/07/30 00:10:28;;;;;;;6.22;2.10;;;;;;;15.92;90.59;101748.00;5074952;28;20036;-68
2022/07/30 00:12:54;;;;;;;3.78;1.88;;;;;;;15.96;90.79;101756.47;5075815;28;20042;-67
2022/07/30 00:15:19;;;;;;;2.70;2.00;;;;;;;15.86;89.97;101738.00;5071249;28;20016;-67
2022/07/30 00:17:44;;;;;;;4.80;1.80;;;;;;;15.89;90.24;101745.66;5073806;28;20034;-67
2022/07/30 00:20:10;;;;;;;1.77;1.27;;;;;;;15.84;89.33;101734.66;5076407;28;20338;-68
2022/07/30 00:22:35;;;;;;;2.95;1.77;;;;;;;15.83;89.60;101741.00;5074953;28;20376;-67
2022/07/30 00:25:01;;;;;;;2.70;1.63;;;;;;;15.73;89.69;101722.50;5079106;28;20044;-67
2022/07/30 00:27:27;;;;;;;3.30;1.90;;;;;;;15.72;90.29;101730.63;5071885;28;20561;-68
2022/07/30 00:29:52;;;;;;;2.28;1.60;;;;;;;15.56;90.39;101710.94;5075397;28;20020;-67
2022/07/30 00:32:17;;;;;;;2.10;1.38;;;;;;;15.69;90.24;101737.09;5069511;28;20111;-67
2022/07/30 00:34:43;;;;;;;2.67;2.05;;;;;;;15.69;89.48;101737.09;5080515;28;20028;-68
2022/07/30 00:37:08;;;;;;;7.53;1.95;;;;;;;15.66;89.40;101731.25;5072356;28;20056;-68
2022/07/30 00:39:33;;;;;;;2.40;1.85;;;;;;;15.64;89.52;101734.91;5077937;28;20077;-67
2022/07/30 00:42:01;;;;;;;5.05;1.83;;;;;;;15.60;90.16;101733.56;5077747;28;20033;-67
2022/07/30 00:44:28;;;;;;;2.30;1.83;;;;;;;15.58;89.98;101735.56;5074058;28;20036;-67
2022/07/30 00:46:54;;;;;;;2.55;1.65;;;;;;;15.53;89.92;101727.22;5078356;28;20032;-67
2022/07/30 00:49:20;;;;;;;2.22;1.20;;;;;;;15.54;89.37;101722.75;5076750;28;20019;-68
2022/07/30 00:51:46;;;;;;;3.50;1.55;;;;;;;15.47;89.86;101717.22;5074981;28;20037;-68
2022/07/30 00:54:11;;;;;;;3.88;1.92;;;;;;;15.48;90.85;101724.19;5071383;28;20070;-68
2022/07/30 00:56:37;;;;;;;2.20;1.60;;;;;;;15.45;90.31;101729.84;5077220;28;20032;-68
2022/07/30 00:59:03;;;;;;;5.00;1.80;;;;;;;15.43;90.26;101724.69;5071873;28;20039;-68
2022/07/30 01:01:30;;;;;;;3.47;2.00;;;;;;;15.45;90.52;101726.38;5080435;28;20451;-69
2022/07/30 01:03:56;;;;;;;3.45;2.00;;;;;;;15.42;90.88;101716.88;5079664;28;20054;-69
2022/07/30 01:06:21;;;;;;;2.53;1.85;;;;;;;15.42;91.45;101720.38;5071003;28;20042;-69
2022/07/30 01:08:47;;;;;;;1.65;1.40;;;;;;;15.40;91.81;101721.53;5081244;28;20024;-69
2022/07/30 01:11:12;;;;;;;4.55;2.40;;;;;;;15.38;92.80;101718.19;5078014;28;20452;-69
2022/07/30 01:13:37;;;;;;;2.60;1.90;;;;;;;15.36;93.47;101717.53;5080340;28;20054;-70
2022/07/30 01:16:03;;;;;;;4.25;2.35;;;;;;;15.31;92.36;101711.84;5082793;28;20038;-69
2022/07/30 01:19:47;;;;;;;3.17;1.67;;;;;;;15.30;90.85;101711.00;5076354;28;20028;-70
2022/07/30 01:21:23;;;;;;;3.38;1.50;;;;;;;15.23;90.90;101710.81;5076794;28;20040;-69
2022/07/30 01:23:52;;;;;;;3.95;2.13;;;;;;;15.21;90.32;101707.47;5083882;28;20040;-70
2022/07/30 01:26:20;;;;;;;2.63;2.08;;;;;;;15.19;90.13;101712.13;5082412;28;20643;-70
2022/07/30 01:28:49;;;;;;;2.42;1.88;;;;;;;15.20;90.35;101705.00;5084815;28;20036;-69
2022/07/30 01:31:16;;;;;;;3.28;2.35;;;;;;;15.17;90.81;101706.13;5086074;28;20532;-69
2022/07/30 01:33:44;;;;;;;2.13;1.83;;;;;;;15.14;90.73;101701.13;5083806;28;20049;-69
2022/07/30 01:36:13;;;;;;;2.65;2.05;;;;;;;15.12;90.33;101703.13;5080102;28;20384;-69
2022/07/30 01:38:42;;;;;;;2.83;1.67;;;;;;;15.09;89.88;101703.44;5085318;28;20119;-69
2022/07/30 01:41:08;;;;;;;3.65;2.40;;;;;;;15.08;90.03;101707.09;5084908;28;20021;-69
2022/07/30 01:43:34;;;;;;;1.98;1.35;;;;;;;15.05;90.43;101699.44;5082962;28;20055;-70
2022/07/30 01:46:01;;;;;;;4.40;2.55;;;;;;;15.06;91.54;101700.25;5081713;28;20085;-70
2022/07/30 01:48:28;;;;;;;6.85;2.90;;;;;;;15.01;92.26;101700.75;5079724;28;20028;-70
2022/07/30 01:50:55;;;;;;;4.43;2.63;;;;;;;14.97;93.66;101702.88;5081962;28;20028;-70
2022/07/30 01:53:24;;;;;;;3.17;2.38;;;;;;;14.84;95.03;101686.53;5077627;28;20099;-69
2022/07/30 01:55:50;;;;;;;3.15;2.00;;;;;;;14.86;94.58;101694.34;5084749;28;20059;-69
2022/07/30 01:58:19;;;;;;;2.38;1.55;;;;;;;14.84;93.77;101693.69;5085790;28;20025;-69
2022/07/30 02:00:48;;;;;;;2.20;1.35;;;;;;;14.75;95.30;101680.34;5085094;28;20537;-69
2022/07/30 02:03:13;;;;;;;2.85;2.40;;;;;;;14.72;96.67;101685.97;5085077;28;20038;-69
2022/07/30 02:05:41;;;;;;;3.30;1.83;;;;;;;14.76;94.84;101697.97;5082025;28;20392;-69
2022/07/30 02:08:20;;;;;;;3.33;2.08;;;;;;;14.74;93.85;101691.97;5086173;28;20028;-69
2022/07/30 02:11:09;;;;;;;3.20;2.00;;;;;;;14.74;93.11;101689.31;5080229;28;20025;-69
2022/07/30 02:13:50;;;;;;;5.53;2.45;;;;;;;14.70;91.95;101682.63;5080367;28;20013;-69
2022/07/30 02:16:25;;;;;;;4.45;1.80;;;;;;;14.65;91.09;101676.94;5083448;28;20008;-70
2022/07/30 02:19:01;;;;;;;2.95;2.03;;;;;;;14.69;91.55;101680.13;5085256;28;20093;-70
2022/07/30 02:21:33;;;;;;;1.92;1.35;;;;;;;14.60;90.84;101688.03;5084555;28;20016;-69
2022/07/30 02:24:01;;;;;;;2.35;1.38;;;;;;;14.59;89.96;101682.91;5083189;28;20066;-70
2022/07/30 02:26:28;;;;;;;2.28;1.65;;;;;;;14.52;90.19;101684.47;5078439;28;20028;-69
2022/07/30 02:28:58;;;;;;;2.90;1.50;;;;;;;14.53;90.11;101694.94;5084234;28;20032;-69
2022/07/30 02:31:27;;;;;;;2.00;1.52;;;;;;;14.46;89.62;101685.06;5084051;28;20041;-70
2022/07/30 02:33:56;;;;;;;3.50;1.92;;;;;;;14.36;89.92;101678.03;5080946;28;20051;-70
2022/07/30 02:36:24;;;;;;;2.40;1.63;;;;;;;14.36;90.06;101674.56;5079791;28;20074;-69
2022/07/30 02:38:51;;;;;;;3.10;1.90;;;;;;;14.44;89.57;101687.03;5084222;28;20024;-69
2022/07/30 02:41:19;;;;;;;2.38;1.30;;;;;;;14.43;90.05;101680.09;5083617;28;20044;-69
2022/07/30 02:43:46;;;;;;;2.58;1.88;;;;;;;14.43;90.85;101685.41;5082251;28;20032;-69
2022/07/30 02:46:15;;;;;;;4.28;1.90;;;;;;;14.38;90.93;101684.03;5087191;28;20024;-69
2022/07/30 02:48:41;;;;;;;2.20;1.33;;;;;;;14.31;90.35;101683.00;5080468;28;20511;-69
2022/07/30 02:51:07;;;;;;;3.75;1.95;;;;;;;14.33;90.47;101686.34;5077643;28;20043;-69
2022/07/30 02:53:33;;;;;;;3.15;2.17;;;;;;;14.19;90.02;101668.28;5084633;28;20032;-69
2022/07/30 02:56:00;;;;;;;2.63;1.70;;;;;;;14.27;90.24;101689.59;5084282;28;20115;-69
2022/07/30 02:58:27;;;;;;;3.78;1.45;;;;;;;14.17;89.23;101688.84;5080165;28;20508;-70
2022/07/30 03:00:54;;;;;;;2.88;1.40;;;;;;;14.17;90.87;101692.31;5082254;28;20043;-69
2022/07/30 03:03:21;;;;;;;2.88;1.63;;;;;;;14.12;89.82;101685.81;5066159;28;20139;-70
2022/07/30 03:05:50;;;;;;;2.05;1.33;;;;;;;14.12;90.50;101685.81;5081961;28;20051;-70
2022/07/30 03:08:16;;;;;;;2.00;1.67;;;;;;;14.11;91.69;101697.41;5078118;28;20031;-69
2022/07/30 03:10:43;;;;;;;1.58;1.00;;;;;;;14.08;93.31;101673.84;5082946;28;20040;-69
2022/07/30 03:13:11;;;;;;;2.28;1.60;;;;;;;14.15;96.20;101678.38;5080346;28;20402;-69
2022/07/30 03:15:40;;;;;;;2.08;1.27;;;;;;;14.03;95.46;101668.16;5080037;28;20484;-69
2022/07/30 03:18:12;;;;;;;2.65;1.60;;;;;;;14.11;94.89;101678.81;5079007;28;20020;-69
2022/07/30 03:20:38;;;;;;;4.30;1.92;;;;;;;14.06;98.42;101683.75;5073427;28;20021;-69
2022/07/30 03:23:05;;;;;;;3.67;1.95;;;;;;;13.98;100.00;101681.88;5076632;28;20032;-69
2022/07/30 03:25:32;;;;;;;2.45;1.40;;;;;;;13.93;97.44;101679.66;5078424;28;20386;-68
2022/07/30 03:27:59;;;;;;;1.08;0.88;;;;;;;13.91;95.87;101681.63;5081004;28;20081;-70
2022/07/30 03:30:27;;;;;;;2.40;2.00;;;;;;;13.94;96.12;101680.53;5084131;28;20037;-69
2022/07/30 03:32:54;;;;;;;1.80;1.27;;;;;;;13.96;96.45;101684.69;5077653;28;20020;-69
2022/07/30 03:35:21;;;;;;;3.95;1.73;;;;;;;13.93;97.40;101669.03;5080343;28;20059;-70
2022/07/30 03:37:47;;;;;;;2.50;1.80;;;;;;;13.95;96.26;101683.00;5081737;28;20029;-69
2022/07/30 03:40:13;;;;;;;2.45;1.80;;;;;;;13.91;94.65;101681.63;5083348;28;20024;-69
2022/07/30 03:42:39;;;;;;;2.63;1.95;;;;;;;13.90;94.17;101685.28;5083690;28;20039;-69
2022/07/30 03:45:07;;;;;;;1.75;1.30;;;;;;;13.90;94.08;101690.59;5080131;28;20025;-69
2022/07/30 03:47:37;;;;;;;2.03;1.70;;;;;;;13.93;95.58;101692.09;5079131;28;20028;-69
2022/07/30 03:50:03;;;;;;;3.00;1.80;;;;;;;13.90;95.92;101695.91;5076131;28;20032;-69
2022/07/30 03:52:32;;;;;;;1.80;1.65;;;;;;;13.85;96.28;101676.97;5078650;28;20024;-69
2022/07/30 03:54:58;;;;;;;2.88;1.83;;;;;;;13.80;96.78;101663.28;5077751;28;20055;-69
2022/07/30 03:57:24;;;;;;;2.75;2.10;;;;;;;13.96;99.69;101691.81;5084608;28;20070;-71
2022/07/30 03:59:50;;;;;;;5.47;2.33;;;;;;;13.97;100.00;101689.00;5081203;28;20090;-69
2022/07/30 04:02:16;;;;;;;2.90;1.52;;;;;;;13.94;99.98;101686.66;5082245;28;20415;-69
2022/07/30 04:04:42;;;;;;;1.85;1.20;;;;;;;13.89;97.58;101686.28;5078318;28;20037;-69
2022/07/30 04:07:08;;;;;;;1.88;1.58;;;;;;;13.91;97.19;101686.94;5075692;28;20028;-69
2022/07/30 04:09:34;;;;;;;2.05;1.25;;;;;;;13.89;96.25;101688.94;5076748;28;20097;-69
2022/07/30 04:11:59;;;;;;;1.73;1.55;;;;;;;13.95;95.36;101693.63;5071948;28;20035;-70
2022/07/30 04:14:25;;;;;;;1.92;1.48;;;;;;;13.90;94.66;101685.28;5075905;28;20530;-70
2022/07/30 04:17:03;;;;;;;2.00;1.67;;;;;;;14.03;95.06;101707.97;5077030;28;20028;-70
2022/07/30 04:19:37;;;;;;;2.05;1.50;;;;;;;14.05;97.50;101711.31;5071888;28;20028;-72
2022/07/30 04:22:04;;;;;;;3.67;1.95;;;;;;;14.02;100.00;101708.94;5065685;28;20776;-71
2022/07/30 04:24:31;;;;;;;2.47;1.90;;;;;;;13.94;100.00;101702.56;5075183;28;20044;-72
2022/07/30 04:26:59;;;;;;;2.15;1.67;;;;;;;13.99;98.73;101716.22;5074330;28;20024;-71
2022/07/30 04:29:24;;;;;;;3.67;2.13;;;;;;;13.99;97.26;101718.03;5079315;28;20096;-71
2022/07/30 04:31:52;;;;;;;3.15;1.45;;;;;;;13.98;96.36;101714.56;5076050;28;20480;-70
2022/07/30 04:34:18;;;;;;;2.45;1.58;;;;;;;14.07;97.07;101725.25;5072629;28;20119;-71
2022/07/30 04:36:43;;;;;;;4.55;1.88;;;;;;;14.07;97.32;101717.31;5077883;28;20025;-71
2022/07/30 04:39:09;;;;;;;3.28;1.42;;;;;;;14.09;98.00;101712.66;5075677;28;20035;-71
2022/07/30 04:41:35;;;;;;;3.30;1.63;;;;;;;14.13;98.05;101716.66;5069340;28;20484;-70
2022/07/30 04:44:00;;;;;;;2.53;1.23;;;;;;;14.13;96.95;101716.66;5073878;28;20024;-71
2022/07/30 04:46:26;;;;;;;1.95;1.70;;;;;;;14.08;96.25;101708.34;5071572;28;20029;-70
2022/07/30 04:48:51;;;;;;;1.75;1.48;;;;;;;14.04;95.66;101699.00;5081383;28;20032;-71
2022/07/30 04:51:31;;;;;;;2.35;1.52;;;;;;;14.28;96.42;101725.75;5072908;28;20028;-70
2022/07/30 04:53:58;;;;;;;4.72;2.88;;;;;;;14.31;97.52;101720.16;5069323;28;20046;-70
2022/07/30 04:56:25;;;;;;;14.05;3.00;;;;;;;14.25;100.00;101718.13;5064934;28;20040;-71
2022/07/30 04:58:51;;;;;;;3.42;2.28;;;;;;;14.30;100.00;101723.78;5068672;28;20135;-71
2022/07/30 05:01:32;;;;;;;2.63;1.58;;;;;;;14.39;100.00;101722.03;5068531;28;20412;-71
2022/07/30 05:03:59;;;;;;;;;;;;;;;14.44;100.00;101725.09;5075713;28;20408;-71
2022/07/30 05:06:25;;;;;;;2.40;1.50;;;;;;;14.48;97.87;101713.16;5074422;28;20013;-71
2022/07/30 05:08:50;;;;;;;2.33;1.63;;;;;;;14.63;96.60;101718.75;5076792;28;20379;-71
2022/07/30 05:11:16;;;;;;;2.50;1.40;;;;;;;14.81;95.74;101732.84;5074676;28;20029;-71
2022/07/30 05:13:49;;;;;;;3.97;1.98;;;;;;;14.94;95.21;101728.97;5070673;28;20020;-71
2022/07/30 05:16:15;;;;;;;2.30;1.63;;;;;;;15.05;94.49;101739.31;5073046;28;20494;-71
2022/07/30 05:18:40;;;;;;;2.80;1.95;;;;;;;15.14;94.49;101729.56;5074277;28;20028;-71
2022/07/30 05:21:06;;;;;;;4.70;2.10;;;;;;;15.23;94.75;101734.75;5072423;28;20388;-70
2022/07/30 05:23:32;;;;;;;2.92;1.77;;;;;;;15.33;95.37;101731.13;5071777;28;20088;-70
2022/07/30 05:25:58;;;;;;;4.20;2.88;;;;;;;15.46;97.10;101736.84;5072640;28;20049;-71
2022/07/30 05:28:25;;;;;;;4.57;2.40;;;;;;;15.49;96.07;101725.88;5073867;28;20125;-71
2022/07/30 05:30:54;;;;;;;4.10;2.30;;;;;;;15.60;95.83;101733.56;5069687;28;20024;-71
2022/07/30 05:33:21;;;;;;;3.97;2.60;;;;;;;15.66;94.98;101726.78;5053618;28;20412;-71
2022/07/30 05:35:47;;;;;;;4.38;2.65;;;;;;;15.79;94.47;101744.97;5073923;28;20028;-71
2022/07/30 05:38:13;;;;;;;6.15;2.80;;;;;;;15.80;96.66;101728.00;5072178;28;20111;-72
2022/07/30 05:40:38;;;;;;;2.67;2.45;;;;;;;15.96;97.26;101733.38;5073343;28;20510;-71
2022/07/30 05:43:04;;;;;;;2.63;1.98;;;;;;;15.97;95.52;101727.03;5070167;28;20024;-71
2022/07/30 05:45:29;;;;;;;4.38;2.35;;;;;;;16.12;95.11;101739.72;5057015;28;20112;-71
2022/07/30 05:47:55;;;;;;;3.95;2.72;;;;;;;16.15;94.91;101728.72;5075049;28;20417;-71
2022/07/30 05:50:20;;;;;;;3.75;2.65;;;;;;;16.26;96.13;101744.38;5070124;28;20055;-72
2022/07/30 05:52:45;;;;;;;3.65;1.90;;;;;;;16.25;95.32;101732.06;5078083;28;20035;-72
2022/07/30 05:55:11;;;;;;;4.32;2.40;;;;;;;16.39;93.75;101744.72;5053144;28;20035;-72
2022/07/30 05:57:36;;;;;;;4.07;2.10;;;;;;;16.44;91.54;101731.75;5078276;28;20020;-72
2022/07/30 06:00:06;;;;;;;4.28;3.63;;;;;;;16.62;90.32;101736.06;5075740;28;20488;-73
2022/07/30 06:02:32;;;;;;;3.33;1.63;;;;;;;16.69;92.49;101725.56;5071497;28;20028;-72
2022/07/30 06:04:57;;;;;;;3.40;1.90;;;;;;;16.95;92.93;101741.38;5077547;28;20290;-72
2022/07/30 06:07:23;;;;;;;5.00;2.88;;;;;;;17.05;93.25;101737.50;5075039;28;20026;-71
2022/07/30 06:09:48;;;;;;;4.68;2.97;;;;;;;17.23;94.42;101737.28;5072842;28;20091;-72
2022/07/30 06:12:14;;;;;;;4.95;2.55;;;;;;;17.34;93.99;101721.91;5068456;28;20075;-73
2022/07/30 06:14:39;;;;;;;5.07;3.05;;;;;;;17.31;94.19;101691.06;5073407;28;20023;-72
2022/07/30 06:17:05;;;;;;;3.67;2.72;;;;;;;17.81;94.46;101737.84;5075720;28;20029;-72
2022/07/30 06:19:30;;;;;;;9.40;3.03;;;;;;;17.89;93.50;101731.66;5077535;28;20484;-72
2022/07/30 06:21:55;;;;;;;3.65;2.75;;;;;;;18.06;92.91;101733.19;5071302;28;20024;-73
2022/07/30 06:24:21;;;;;;;3.60;2.53;;;;;;;18.23;91.82;101741.94;5058301;28;20045;-72
2022/07/30 06:26:46;;;;;;;6.00;3.55;;;;;;;18.34;92.83;101756.72;5077851;28;20115;-72
2022/07/30 06:29:12;;;;;;;7.40;3.83;;;;;;;18.49;92.02;101762.13;5078399;28;20566;-72
2022/07/30 06:31:38;;;;;;;5.50;3.97;;;;;;;18.56;91.79;101738.16;5052445;28;20148;-72
2022/07/30 06:34:04;;;;;;;7.45;2.35;;;;;;;18.71;91.72;101755.06;5071890;28;20480;-72
2022/07/30 06:36:29;;;;;;;3.58;3.00;;;;;;;18.93;91.32;101757.91;5069826;28;20021;-72
2022/07/30 06:38:55;;;;;;;8.68;3.55;;;;;;;18.97;89.79;101748.50;5080398;28;20059;-72
2022/07/30 06:41:20;;;;;;;5.45;4.13;;;;;;;19.28;89.20;101750.97;5067999;28;20063;-72
2022/07/30 06:43:46;;;;;;;4.68;2.83;;;;;;;19.73;87.31;101763.31;5076065;28;20031;-72
2022/07/30 06:46:11;;;;;;;6.28;3.75;;;;;;;20.21;86.24;101756.59;5076069;28;20112;-72
2022/07/30 06:48:36;;;;;;;4.97;3.08;;;;;;;20.79;84.39;101761.84;5077886;28;20112;-72
2022/07/30 06:51:02;;;;;;;6.43;3.45;;;;;;;21.37;81.97;101768.59;5080288;28;20073;-72
2022/07/30 06:53:27;;;;;;;5.43;3.20;;;;;;;21.77;78.97;101760.75;5074128;28;20663;-72
2022/07/30 06:55:53;;;;;;;6.65;3.22;;;;;;;22.29;76.62;101768.31;5078506;28;20286;-72
2022/07/30 06:58:18;;;;;;;5.40;3.65;;;;;;;22.46;75.71;101774.94;5076836;28;20339;-73
2022/07/30 07:00:43;;;;;;;4.13;2.25;;;;;;;23.21;75.51;101769.28;5080930;28;20039;-72
2022/07/30 07:03:10;;;;;;;6.00;3.17;;;;;;;23.68;72.19;101772.66;5080407;28;20024;-72
2022/07/30 07:05:35;;;;;;;5.40;3.10;;;;;;;24.00;70.43;101776.25;5077867;28;20039;-73
2022/07/30 07:08:00;;;;;;;4.38;2.50;;;;;;;24.43;70.78;101783.63;5080273;28;20040;-72
2022/07/30 07:10:26;;;;;;;5.75;3.10;;;;;;;24.66;68.67;101786.78;5077455;28;20241;-74
2022/07/30 07:12:51;;;;;;;7.13;3.17;;;;;;;24.69;67.21;101794.44;5082096;28;20476;-73
2022/07/30 07:15:17;;;;;;;4.53;3.05;;;;;;;24.96;66.20;101790.44;5077709;28;20043;-72
2022/07/30 07:17:42;;;;;;;3.13;2.50;;;;;;;25.34;66.47;101789.44;5083371;28;20025;-72
2022/07/30 07:20:08;;;;;;;6.22;3.70;;;;;;;25.62;65.23;101788.88;5073208;28;20029;-73
2022/07/30 07:22:34;;;;;;;4.57;3.65;;;;;;;26.27;64.04;101779.28;5078637;28;20420;-73
2022/07/30 07:24:59;;;;;;;5.78;3.55;;;;;;;26.52;61.22;101778.22;5076843;28;20045;-73
2022/07/30 07:27:25;;;;;;;4.20;2.78;;;;;;;27.17;60.40;101777.28;5076696;28;20045;-73
2022/07/30 07:29:50;;;;;;;4.05;2.53;;;;;;;27.66;59.83;101781.31;5071610;28;20514;-72
2022/07/30 07:32:15;;;;;;;4.40;2.42;;;;;;;27.99;58.19;101778.97;5073835;28;20036;-73
2022/07/30 07:34:41;;;;;;;3.60;2.50;;;;;;;28.32;57.79;101789.03;5076857;28;20028;-73
2022/07/30 07:37:06;;;;;;;3.50;3.00;;;;;;;28.48;57.51;101790.97;5081316;28;20396;-73
2022/07/30 07:39:31;;;;;;;3.95;2.15;;;;;;;28.30;57.65;101791.97;5069968;28;20392;-73
2022/07/30 07:41:57;;;;;;;6.05;2.25;;;;;;;28.77;56.99;101792.75;5074878;28;20032;-73
2022/07/30 07:44:22;;;;;;;3.58;3.08;;;;;;;28.85;56.56;101784.16;5071659;28;20472;-73
2022/07/30 07:46:48;;;;;;;4.82;2.72;;;;;;;29.50;55.68;101788.00;5079717;28;20094;-73
2022/07/30 07:49:13;;;;;;;4.60;2.38;;;;;;;29.92;54.66;101781.94;5078935;28;20017;-73
2022/07/30 07:51:39;;;;;;;5.50;2.33;;;;;;;30.54;52.63;101781.41;5072956;28;20028;-73
2022/07/30 07:54:04;;;;;;;5.32;2.15;;;;;;;30.99;51.17;101782.00;5061782;28;20024;-74
2022/07/30 07:56:29;;;;;;;3.53;2.33;;;;;;;31.46;50.48;101783.03;5078821;28;20031;-73
2022/07/30 07:58:56;;;;;;;5.65;2.20;;;;;;;31.53;49.29;101776.25;5075483;28;20062;-74
2022/07/30 08:01:21;;;;;;;4.18;2.05;;;;;;;32.28;49.01;101780.47;5076983;28;20024;-73
2022/07/30 08:03:47;;;;;;;2.17;1.80;;;;;;;32.71;47.49;101781.78;5072694;28;20025;-71
2022/07/30 08:06:12;;;;;;;3.75;2.00;;;;;;;32.83;48.33;101780.66;5080532;28;20040;-71
2022/07/30 08:08:38;;;;;;;3.92;2.00;;;;;;;33.29;46.98;101783.25;5070566;28;20096;-72
2022/07/30 08:11:05;;;;;;;4.63;1.80;;;;;;;33.57;46.72;101790.75;5069991;28;20037;-73
2022/07/30 08:13:31;;;;;;;3.10;1.75;;;;;;;33.42;47.06;101788.09;5080667;28;20024;-71
2022/07/30 08:15:57;;;;;;;3.17;1.50;;;;;;;33.69;46.78;101773.19;5080755;28;20048;-71
2022/07/30 08:18:23;;;;;;;3.50;1.85;;;;;;;34.29;45.65;101787.56;5077546;28;20033;-73
2022/07/30 08:20:49;;;;;;;2.40;1.27;;;;;;;34.97;44.53;101788.53;5073494;28;20031;-72
2022/07/30 08:23:14;;;;;;;5.85;1.67;;;;;;;34.64;45.46;101785.59;5082416;28;20035;-72
2022/07/30 08:25:40;;;;;;;1.90;1.10;;;;;;;35.27;45.07;101781.88;5053595;28;20527;-71
2022/07/30 08:28:05;;;;;;;1.75;1.05;;;;;;;35.70;44.14;101772.81;5080046;28;20059;-71
2022/07/30 08:30:31;;;;;;;5.03;1.52;;;;;;;35.94;43.78;101783.69;5058155;28;20024;-71
2022/07/30 08:32:56;;;;;;;2.97;1.45;;;;;;;36.11;43.64;101789.44;5079319;28;20033;-71
2022/07/30 08:35:22;;;;;;;4.20;1.15;;;;;;;36.18;43.61;101780.84;5083548;28;20024;-71
2022/07/30 08:37:47;;;;;;;5.97;1.50;;;;;;;36.41;43.07;101788.13;5054044;28;20032;-72
2022/07/30 08:40:12;;;;;;;4.80;1.45;;;;;;;35.79;43.92;101771.00;5075374;28;20447;-71
2022/07/30 08:42:38;;;;;;;3.25;1.48;;;;;;;35.80;44.01;101783.59;5078096;28;20024;-72
2022/07/30 08:45:05;;;;;;;3.22;1.40;;;;;;;36.12;43.94;101779.25;5077433;28;20082;-71
2022/07/30 08:47:32;;;;;;;3.08;1.45;;;;;;;36.59;42.80;101760.84;5075833;28;20435;-73
2022/07/30 08:50:03;;;;;;;3.40;1.65;;;;;;;36.60;43.14;101779.81;5075230;28;20028;-72
2022/07/30 08:52:31;;;;;;;2.78;1.17;;;;;;;36.90;43.52;101776.78;5075762;28;20047;-72
2022/07/30 08:54:57;;;;;;;1.55;1.08;;;;;;;37.70;42.23;101777.28;5077627;28;20016;-73
2022/07/30 08:57:23;;;;;;;2.60;1.52;;;;;;;38.13;41.47;101780.38;5073195;28;20032;-73
2022/07/30 08:59:50;;;;;;;2.25;1.23;;;;;;;38.72;41.56;101782.94;5085002;28;20092;-73
2022/07/30 09:02:16;;;;;;;2.83;1.27;;;;;;;38.03;41.79;101786.13;5074108;28;20078;-73
2022/07/30 09:04:41;;;;;;;1.55;1.08;;;;;;;36.52;43.02;101780.50;5077580;28;20476;-72
2022/07/30 09:07:07;;;;;;;1.83;1.27;;;;;;;35.78;44.30;101786.69;5071690;28;20021;-72
2022/07/30 09:09:32;;;;;;;4.57;1.50;;;;;;;34.65;46.16;101786.41;5082005;28;20032;-72
2022/07/30 09:11:58;;;;;;;2.75;1.27;;;;;;;33.46;48.27;101785.63;5079548;28;20027;-73
2022/07/30 09:14:23;;;;;;;3.03;1.55;;;;;;;33.05;49.96;101772.13;5073773;28;20027;-73
2022/07/30 09:16:56;;;;;;;2.15;1.10;;;;;;;34.12;47.58;101784.41;5067991;28;20107;-73
2022/07/30 09:19:21;;;;;;;3.17;0.93;;;;;;;33.65;47.79;101788.59;5064305;28;20015;-73
2022/07/30 09:22:00;;;;;;;1.77;1.10;;;;;;;32.69;49.29;101783.19;5081860;28;20036;-73
2022/07/30 09:24:26;;;;;;;2.92;1.10;;;;;;;32.28;49.96;101781.28;5070001;28;20058;-73
2022/07/30 09:27:00;;;;;;;1.95;1.20;;;;;;;32.21;49.91;101788.94;5072356;28;20122;-73
2022/07/30 09:29:30;;;;;;;1.75;0.85;;;;;;;32.63;50.90;101776.88;5064677;28;20712;-73
2022/07/30 09:32:03;;;;;;;3.38;0.75;;;;;;;34.54;47.24;101780.22;5069898;28;20047;-73
2022/07/30 09:34:31;;;;;;;3.53;1.00;;;;;;;35.60;44.77;101780.03;5070050;28;20605;-73
2022/07/30 09:36:58;;;;;;;4.85;1.50;;;;;;;36.00;43.98;101779.75;5076656;28;20024;-73
2022/07/30 09:39:35;;;;;;;2.97;1.15;;;;;;;34.52;44.61;101771.47;5072473;28;20519;-73
2022/07/30 09:42:02;;;;;;;1.80;0.93;;;;;;;34.22;46.88;101782.41;5081346;28;20464;-73
2022/07/30 09:44:29;;;;;;;1.80;1.00;;;;;;;35.37;45.46;101780.94;5077342;28;20024;-72
2022/07/30 09:46:56;;;;;;;2.00;1.00;;;;;;;36.59;43.68;101780.09;5071078;28;20031;-73
2022/07/30 09:49:26;;;;;;;2.47;1.30;;;;;;;37.19;43.17;101779.22;5078986;28;20033;-73
2022/07/30 09:51:53;;;;;;;1.77;1.20;;;;;;;37.52;41.14;101776.28;5074406;28;20035;-73
2022/07/30 09:54:19;;;;;;;3.35;1.27;;;;;;;37.64;41.21;101784.84;5072692;28;20024;-73
2022/07/30 09:56:47;;;;;;;4.75;1.17;;;;;;;38.05;41.15;101792.97;5079851;28;20032;-73
2022/07/30 09:59:31;;;;;;;2.40;1.10;;;;;;;39.29;39.94;101793.97;5077280;28;20038;-73
2022/07/30 10:01:58;;;;;;;1.50;0.93;;;;;;;39.96;38.83;101788.31;5076201;28;20017;-73
2022/07/30 10:04:31;;;;;;;3.67;1.58;;;;;;;40.04;38.19;101791.06;5072462;28;20043;-73
2022/07/30 10:06:58;;;;;;;1.95;1.00;;;;;;;39.76;38.92;101790.59;5068956;28;20044;-73
2022/07/30 10:09:24;;;;;;;2.38;0.75;;;;;;;39.55;38.46;101800.69;5080381;28;20549;-71
2022/07/30 10:11:52;;;;;;;1.52;0.88;;;;;;;37.79;40.64;101787.22;5072796;28;20024;-71
2022/07/30 10:14:18;;;;;;;2.65;1.17;;;;;;;37.49;40.25;101776.91;5076962;28;20032;-71
2022/07/30 10:16:43;;;;;;;2.53;1.17;;;;;;;38.17;39.99;101792.38;5076838;28;20058;-71
2022/07/30 10:19:11;;;;;;;1.23;0.73;;;;;;;38.48;40.38;101775.03;5079299;28;20016;-73
2022/07/30 10:21:36;;;;;;;3.17;0.70;;;;;;;39.13;38.83;101784.53;5069705;28;20412;-73
2022/07/30 10:24:02;;;;;;;2.95;1.10;;;;;;;39.88;37.43;101787.22;5081309;28;20024;-73
2022/07/30 10:26:32;;;;;;;3.33;1.00;;;;;;;37.88;38.85;101765.25;5074982;28;20333;-73
2022/07/30 10:28:58;;;;;;;2.55;1.08;;;;;;;36.64;42.40;101791.03;5077873;28;20024;-74
2022/07/30 10:31:25;;;;;;;1.48;0.80;;;;;;;35.10;43.75;101792.50;5074171;28;20376;-73
2022/07/30 10:33:51;;;;;;;2.90;1.00;;;;;;;34.55;44.64;101793.63;5078700;28;20073;-73
2022/07/30 10:36:18;;;;;;;2.05;1.10;;;;;;;34.09;45.60;101788.53;5076266;28;20381;-73
2022/07/30 10:38:44;;;;;;;4.07;1.35;;;;;;;34.44;44.79;101786.59;5081473;28;20384;-73
2022/07/30 10:41:34;;;;;;;4.25;0.98;;;;;;;35.26;43.82;101774.75;5071130;28;20051;-73
2022/07/30 10:44:05;;;;;;;;;;;;;;;35.91;41.82;101792.50;5078544;28;20480;-73
2022/07/30 10:46:49;;;;;;;1.63;0.70;;;;;;;33.25;45.19;101791.19;5074694;28;20011;-73
2022/07/30 10:49:16;;;;;;;2.47;1.08;;;;;;;35.12;43.68;101796.56;5077431;28;20032;-73
2022/07/30 10:51:49;;;;;;;2.25;0.93;;;;;;;35.70;43.07;101772.81;5072411;28;20025;-73
2022/07/30 10:54:33;;;;;;;1.60;0.82;;;;;;;35.43;44.47;101796.19;5079987;28;20028;-73
2022/07/30 10:57:17;;;;;;;3.15;1.00;;;;;;;34.58;44.31;101798.53;5069408;28;20227;-73
2022/07/30 10:59:49;;;;;;;1.40;1.00;;;;;;;34.00;47.34;101798.47;5075636;28;20023;-73
2022/07/30 11:02:22;;;;;;;1.20;0.80;;;;;;;34.87;44.91;101794.16;5077090;28;20606;-73
2022/07/30 11:04:48;;;;;;;1.05;0.75;;;;;;;33.97;44.95;101804.50;5075820;28;20160;-73
2022/07/30 11:07:22;;;;;;;1.95;0.90;;;;;;;34.10;45.47;101797.56;5079842;28;20063;-73
2022/07/30 11:09:52;;;;;;;2.05;0.93;;;;;;;34.10;46.43;101808.50;5078184;28;20063;-73
2022/07/30 11:12:40;;;;;;;1.48;0.93;;;;;;;34.21;46.08;101810.94;5075802;28;20059;-73
2022/07/30 11:15:05;;;;;;;2.42;1.17;;;;;;;33.99;45.63;101805.88;5078869;28;20024;-73
2022/07/30 11:18:01;;;;;;;2.55;1.10;;;;;;;34.42;44.60;101802.50;5076501;28;20031;-73
2022/07/30 11:20:29;;;;;;;2.50;0.80;;;;;;;33.38;47.01;101798.81;5069251;28;20028;-73
2022/07/30 11:23:08;;;;;;;1.88;0.85;;;;;;;33.53;46.92;101784.22;5080270;28;20347;-73
2022/07/30 11:25:33;;;;;;;3.00;1.13;;;;;;;34.01;45.78;101797.34;5077033;28;20412;-72